Time;durP1;ratioP1;P1;durP2;ratioP2;P2;SDS_P1;SDS_P2;PMS_P1;PMS_P2;Temp;Humidity;BMP_temperature;BMP_pressure;BME280_temperature;BME280_humidity;BME280_pressure;Samples;Min_cycle;Max_cycle;Signal;HPM_P1;HPM_P2
2021/07/03 00:01:02;;;;;;;12.75;8.32;;;19.60;90.80;;;;;;5034214;28;20295;-64
2021/07/03 00:03:46;;;;;;;11.43;7.82;;;19.60;91.10;;;;;;5050944;28;20055;-64
2021/07/03 00:06:30;;;;;;;11.98;8.82;;;19.60;91.10;;;;;;5036181;28;20091;-63
2021/07/03 00:09:14;;;;;;;13.37;8.90;;;19.60;91.20;;;;;;5052705;28;20036;-63
2021/07/03 00:12:02;;;;;;;14.82;8.65;;;19.50;91.30;;;;;;5037626;28;20501;-63
2021/07/03 00:14:46;;;;;;;11.52;8.90;;;19.50;91.40;;;;;;5032291;28;20045;-64
2021/07/03 00:17:30;;;;;;;16.93;8.93;;;19.40;91.60;;;;;;5045979;28;20082;-63
2021/07/03 00:20:14;;;;;;;11.20;8.55;;;19.40;91.60;;;;;;5052204;28;20120;-64
2021/07/03 00:22:59;;;;;;;13.30;9.82;;;19.40;91.70;;;;;;5032259;28;20053;-65
2021/07/03 00:25:43;;;;;;;15.43;8.93;;;19.40;91.80;;;;;;5031084;28;20079;-69
2021/07/03 00:28:27;;;;;;;13.07;9.32;;;19.30;92.10;;;;;;5034314;28;20067;-69
2021/07/03 00:31:11;;;;;;;13.33;9.47;;;19.30;92.20;;;;;;5030601;28;20449;-68
2021/07/03 00:33:56;;;;;;;12.10;8.75;;;19.20;92.30;;;;;;5032481;28;20763;-69
2021/07/03 00:36:40;;;;;;;14.68;9.55;;;19.30;92.40;;;;;;5039117;28;20082;-68
2021/07/03 00:39:25;;;;;;;12.95;9.20;;;19.30;92.50;;;;;;5052274;28;20190;-68
2021/07/03 00:41:55;;;;;;;14.57;9.48;;;19.30;92.80;;;;;;5041219;28;20029;-69
2021/07/03 00:44:39;;;;;;;15.60;9.82;;;19.30;92.80;;;;;;5052176;28;20494;-69
2021/07/03 00:47:25;;;;;;;15.40;10.65;;;19.30;92.70;;;;;;5046880;28;20127;-68
2021/07/03 00:50:11;;;;;;;18.38;9.80;;;19.30;92.90;;;;;;5050704;28;20025;-68
2021/07/03 00:52:57;;;;;;;17.75;10.07;;;19.20;93.10;;;;;;5049551;28;20036;-68
2021/07/03 00:55:45;;;;;;;15.85;10.57;;;19.20;92.90;;;;;;5046732;28;20035;-68
2021/07/03 00:58:31;;;;;;;16.55;11.10;;;19.30;93.00;;;;;;5029859;28;20386;-69
2021/07/03 01:01:17;;;;;;;14.38;10.07;;;19.30;93.00;;;;;;5028443;28;20029;-69
2021/07/03 01:04:04;;;;;;;15.95;10.65;;;19.30;93.00;;;;;;5034282;28;20037;-66
2021/07/03 01:06:50;;;;;;;15.95;11.52;;;19.40;93.10;;;;;;5086135;28;20393;-66
2021/07/03 01:09:36;;;;;;;15.68;10.32;;;19.30;93.00;;;;;;5089091;28;20399;-66
2021/07/03 01:12:22;;;;;;;15.15;10.02;;;19.40;93.20;;;;;;5072500;28;20169;-67
2021/07/03 01:15:08;;;;;;;14.20;10.30;;;19.40;93.20;;;;;;5070265;28;20020;-66
2021/07/03 01:17:54;;;;;;;15.43;9.98;;;19.40;93.20;;;;;;5088329;28;20056;-67
2021/07/03 01:20:39;;;;;;;13.23;10.32;;;19.40;93.20;;;;;;5086537;28;20115;-66
2021/07/03 01:23:25;;;;;;;15.63;11.25;;;19.40;93.20;;;;;;5070193;28;20056;-67
2021/07/03 01:26:11;;;;;;;14.75;11.07;;;19.40;93.20;;;;;;5054378;28;20429;-67
2021/07/03 01:28:57;;;;;;;16.05;10.88;;;19.30;93.30;;;;;;5071509;28;20047;-67
2021/07/03 01:31:44;;;;;;;15.20;9.80;;;19.30;93.30;;;;;;5070663;28;20541;-68
2021/07/03 01:34:31;;;;;;;13.90;10.15;;;19.40;93.30;;;;;;5073535;28;20104;-67
2021/07/03 01:37:17;;;;;;;16.60;11.05;;;19.30;93.20;;;;;;5089508;28;20158;-67
2021/07/03 01:40:04;;;;;;;18.67;11.55;;;19.30;93.20;;;;;;5085653;28;20036;-67
2021/07/03 01:42:50;;;;;;;13.18;10.48;;;19.30;93.30;;;;;;5089847;28;20074;-67
2021/07/03 01:45:36;;;;;;;16.40;11.02;;;19.30;93.40;;;;;;5073463;28;20024;-67
2021/07/03 01:48:29;;;;;;;17.55;11.15;;;19.20;93.50;;;;;;5071793;28;20063;-67
2021/07/03 01:51:15;;;;;;;18.00;10.95;;;19.20;93.50;;;;;;5091058;28;20101;-67
2021/07/03 01:54:01;;;;;;;16.27;11.75;;;19.20;93.50;;;;;;5089395;28;20040;-66
2021/07/03 01:56:58;;;;;;;13.80;10.90;;;19.20;93.60;;;;;;5054231;28;20120;-67
2021/07/03 01:59:43;;;;;;;15.90;10.38;;;19.20;93.60;;;;;;5059019;28;20046;-67
2021/07/03 02:02:29;;;;;;;16.73;10.60;;;19.10;93.60;;;;;;5073535;28;20492;-67
2021/07/03 02:05:15;;;;;;;15.05;11.10;;;19.10;93.70;;;;;;5082451;28;20040;-67
2021/07/03 02:08:01;;;;;;;16.67;11.07;;;19.10;93.70;;;;;;5094178;28;20035;-67
2021/07/03 02:10:47;;;;;;;17.50;11.95;;;19.10;93.70;;;;;;5075155;28;20085;-66
2021/07/03 02:13:33;;;;;;;15.98;11.90;;;19.10;93.80;;;;;;5073464;28;20074;-66
2021/07/03 02:16:19;;;;;;;15.23;11.73;;;19.10;93.80;;;;;;5092273;28;20448;-67
2021/07/03 02:19:06;;;;;;;15.98;12.43;;;19.00;93.80;;;;;;5086154;28;20110;-67
2021/07/03 02:21:52;;;;;;;16.60;11.20;;;19.10;93.90;;;;;;5071471;28;20026;-67
2021/07/03 02:24:38;;;;;;;14.75;11.52;;;19.00;93.90;;;;;;5071314;28;20086;-67
2021/07/03 02:27:24;;;;;;;15.77;11.38;;;19.00;94.10;;;;;;5073399;28;20381;-67
2021/07/03 02:30:14;;;;;;;16.38;11.63;;;18.90;94.10;;;;;;5080304;28;20074;-67
2021/07/03 02:33:00;;;;;;;15.60;10.85;;;18.90;94.20;;;;;;5092960;28;20026;-67
2021/07/03 02:35:46;;;;;;;14.02;11.32;;;18.90;94.20;;;;;;5076013;28;20048;-67
2021/07/03 02:38:32;;;;;;;17.40;12.65;;;18.90;94.20;;;;;;5073439;28;20031;-67
2021/07/03 02:41:17;;;;;;;18.85;13.20;;;18.90;94.20;;;;;;5066684;28;20139;-67
2021/07/03 02:44:03;;;;;;;15.18;11.30;;;18.80;94.20;;;;;;5055850;28;20151;-67
2021/07/03 02:46:47;;;;;;;20.13;12.93;;;18.80;94.20;;;;;;5083040;28;20552;-67
2021/07/03 02:49:31;;;;;;;15.10;12.05;;;18.80;94.30;;;;;;5090052;28;20027;-66
2021/07/03 02:52:15;;;;;;;18.80;12.85;;;18.70;94.30;;;;;;5081044;28;20468;-67
2021/07/03 02:54:59;;;;;;;16.97;12.70;;;18.70;94.40;;;;;;5068561;28;20070;-67
2021/07/03 02:57:44;;;;;;;17.00;12.40;;;18.70;94.40;;;;;;5077030;28;20063;-67
2021/07/03 03:00:28;;;;;;;18.83;12.32;;;18.70;94.50;;;;;;5084730;28;20101;-67
2021/07/03 03:03:12;;;;;;;16.92;11.70;;;18.70;94.50;;;;;;5081823;28;20046;-67
2021/07/03 03:05:56;;;;;;;15.60;12.40;;;18.60;94.70;;;;;;5082777;28;20059;-67
2021/07/03 03:08:40;;;;;;;16.02;12.52;;;18.60;94.60;;;;;;5074300;28;20067;-67
2021/07/03 03:11:24;;;;;;;17.25;11.90;;;18.60;94.60;;;;;;5093572;28;20445;-68
2021/07/03 03:14:08;;;;;;;19.83;12.30;;;18.60;94.60;;;;;;5090835;28;20031;-67
2021/07/03 03:16:52;;;;;;;20.33;12.45;;;18.60;94.70;;;;;;5073888;28;20218;-66
2021/07/03 03:19:36;;;;;;;19.30;12.60;;;18.60;94.80;;;;;;5076664;28;20077;-67
2021/07/03 03:22:20;;;;;;;16.67;12.00;;;18.60;95.00;;;;;;5092505;28;20289;-66
2021/07/03 03:25:05;;;;;;;18.23;11.75;;;18.60;94.90;;;;;;5065717;28;20527;-67
2021/07/03 03:27:50;;;;;;;18.88;12.93;;;18.60;94.90;;;;;;5053228;28;20705;-67
2021/07/03 03:30:34;;;;;;;20.17;13.33;;;18.50;94.90;;;;;;5079224;28;20046;-68
2021/07/03 03:33:18;;;;;;;17.20;12.40;;;18.50;94.90;;;;;;5093892;28;20415;-67
2021/07/03 03:36:03;;;;;;;18.53;12.93;;;18.50;94.90;;;;;;5073684;28;20055;-67
2021/07/03 03:38:48;;;;;;;17.85;13.60;;;18.50;95.00;;;;;;5073448;28;20289;-67
2021/07/03 03:41:31;;;;;;;18.43;12.90;;;18.50;95.00;;;;;;5073141;28;20043;-67
2021/07/03 03:44:16;;;;;;;21.13;13.47;;;18.50;95.00;;;;;;5072058;28;20048;-68
2021/07/03 03:47:00;;;;;;;19.73;13.27;;;18.50;95.00;;;;;;5073216;28;20031;-68
2021/07/03 03:49:43;;;;;;;17.70;12.88;;;18.50;95.10;;;;;;5076952;28;20077;-67
2021/07/03 03:52:27;;;;;;;20.00;13.95;;;18.60;95.20;;;;;;5078106;28;20100;-67
2021/07/03 03:55:11;;;;;;;15.73;12.40;;;18.60;95.10;;;;;;5074482;28;20038;-68
2021/07/03 03:57:56;;;;;;;16.60;12.48;;;18.60;95.20;;;;;;5072896;28;20571;-68
2021/07/03 04:00:40;;;;;;;20.00;12.90;;;18.70;95.10;;;;;;5077258;28;20163;-67
2021/07/03 04:03:24;;;;;;;18.45;12.77;;;18.70;95.20;;;;;;5072731;28;20039;-67
2021/07/03 04:06:08;;;;;;;18.83;13.63;;;18.70;95.20;;;;;;5071503;28;20051;-68
2021/07/03 04:08:52;;;;;;;20.02;14.48;;;18.80;95.20;;;;;;5071845;28;20082;-68
2021/07/03 04:11:36;;;;;;;17.98;13.27;;;18.80;95.20;;;;;;5052169;28;20043;-68
2021/07/03 04:14:20;;;;;;;18.65;12.55;;;18.80;95.20;;;;;;5055684;28;20081;-68
2021/07/03 04:17:04;;;;;;;18.33;12.60;;;18.80;95.20;;;;;;5072552;28;20392;-68
2021/07/03 04:19:48;;;;;;;20.63;14.17;;;18.80;95.10;;;;;;5069988;28;20571;-67
2021/07/03 04:22:33;;;;;;;17.42;12.63;;;18.80;95.10;;;;;;5076540;28;20043;-67
2021/07/03 04:25:19;;;;;;;19.15;13.88;;;18.80;95.10;;;;;;5089360;28;20097;-68
2021/07/03 04:28:03;;;;;;;19.75;13.15;;;18.90;95.10;;;;;;5092477;28;20075;-67
2021/07/03 04:30:47;;;;;;;17.70;12.95;;;18.90;95.10;;;;;;5074899;28;20078;-67
2021/07/03 04:33:32;;;;;;;18.08;12.73;;;18.90;95.10;;;;;;5072121;28;20039;-68
2021/07/03 04:36:16;;;;;;;17.83;13.05;;;19.00;95.10;;;;;;5089647;28;20506;-67
2021/07/03 04:39:00;;;;;;;15.43;10.93;;;19.10;95.00;;;;;;5090229;28;20131;-67
2021/07/03 04:41:44;;;;;;;19.80;14.00;;;19.10;94.90;;;;;;5060586;28;20258;-67
2021/07/03 04:44:28;;;;;;;18.03;12.33;;;19.10;94.90;;;;;;5056045;28;20278;-67
2021/07/03 04:47:12;;;;;;;18.43;12.57;;;19.10;94.90;;;;;;5066263;28;20043;-67
2021/07/03 04:49:58;;;;;;;20.92;13.80;;;19.20;94.90;;;;;;5059016;28;20489;-67
2021/07/03 04:52:44;;;;;;;18.58;13.10;;;19.20;94.80;;;;;;5083288;28;20085;-66
2021/07/03 04:55:29;;;;;;;16.35;12.85;;;19.30;94.70;;;;;;5073246;28;20034;-67
2021/07/03 04:58:15;;;;;;;17.10;13.25;;;19.40;94.70;;;;;;5070478;28;20036;-67
2021/07/03 05:01:01;;;;;;;19.38;12.50;;;19.40;94.60;;;;;;5074627;28;20111;-66
2021/07/03 05:03:47;;;;;;;18.10;12.65;;;19.50;94.60;;;;;;5069766;28;20394;-66
2021/07/03 05:06:33;;;;;;;18.92;13.80;;;19.50;94.50;;;;;;5050281;28;20098;-69
2021/07/03 05:09:18;;;;;;;17.95;12.88;;;19.60;94.30;;;;;;5055596;28;20037;-68
2021/07/03 05:12:05;;;;;;;20.35;13.25;;;19.70;94.50;;;;;;5089317;28;20404;-66
2021/07/03 05:14:50;;;;;;;16.80;13.07;;;19.70;94.30;;;;;;5080456;28;20461;-68
2021/07/03 05:17:36;;;;;;;18.45;12.43;;;19.70;94.30;;;;;;5069999;28;20064;-68
2021/07/03 05:20:22;;;;;;;18.52;12.43;;;19.80;94.10;;;;;;5072579;28;20432;-67
2021/07/03 05:23:08;;;;;;;19.13;12.45;;;19.90;94.00;;;;;;5075731;28;20047;-67
2021/07/03 05:25:55;;;;;;;17.90;13.20;;;20.00;93.90;;;;;;5070456;28;20027;-67
2021/07/03 05:28:40;;;;;;;18.23;13.45;;;20.00;93.90;;;;;;5049747;28;20043;-68
2021/07/03 05:31:27;;;;;;;17.02;11.52;;;20.10;93.80;;;;;;5059823;28;20021;-69
2021/07/03 05:34:13;;;;;;;17.33;12.43;;;20.20;93.70;;;;;;5052032;28;20036;-69
2021/07/03 05:36:58;;;;;;;14.65;10.95;;;20.20;93.60;;;;;;5069274;28;20105;-68
2021/07/03 05:39:44;;;;;;;17.73;12.20;;;20.30;93.60;;;;;;5078567;28;20385;-68
2021/07/03 05:42:30;;;;;;;17.88;12.23;;;20.30;93.50;;;;;;5088606;28;20077;-68
2021/07/03 05:45:16;;;;;;;18.90;12.68;;;20.40;93.30;;;;;;5076413;28;20102;-69
2021/07/03 05:48:03;;;;;;;15.68;11.00;;;20.50;93.20;;;;;;5069895;28;20029;-68
2021/07/03 05:50:50;;;;;;;13.95;11.55;;;20.50;93.30;;;;;;5083141;28;20501;-69
2021/07/03 05:53:36;;;;;;;16.90;11.35;;;20.60;93.00;;;;;;5088597;28;20028;-68
2021/07/03 05:56:22;;;;;;;18.17;11.70;;;20.60;92.90;;;;;;5070040;28;20086;-68
2021/07/03 05:59:08;;;;;;;15.98;12.63;;;20.60;92.70;;;;;;5068484;28;20033;-68
2021/07/03 06:01:53;;;;;;;15.85;11.68;;;20.70;92.50;;;;;;5079506;28;20024;-69
2021/07/03 06:04:39;;;;;;;17.20;11.98;;;20.80;92.80;;;;;;5086709;28;20051;-68
2021/07/03 06:07:26;;;;;;;19.10;12.68;;;20.80;92.50;;;;;;5090530;28;20032;-68
2021/07/03 06:10:12;;;;;;;19.20;12.27;;;20.90;92.30;;;;;;5076359;28;20040;-68
2021/07/03 06:12:58;;;;;;;17.83;11.65;;;20.90;92.50;;;;;;5069522;28;20112;-68
2021/07/03 06:15:44;;;;;;;16.80;12.75;;;21.00;92.60;;;;;;5065790;28;20403;-68
2021/07/03 06:18:30;;;;;;;20.50;12.45;;;21.10;92.70;;;;;;5049424;28;20037;-67
2021/07/03 06:21:15;;;;;;;14.98;11.43;;;21.20;92.40;;;;;;5068206;28;20033;-68
2021/07/03 06:24:02;;;;;;;15.70;11.38;;;21.20;92.40;;;;;;5068382;28;20182;-68
2021/07/03 06:26:47;;;;;;;16.88;11.68;;;21.30;92.20;;;;;;5061855;28;20060;-68
2021/07/03 06:29:34;;;;;;;18.60;12.15;;;21.30;92.10;;;;;;5064586;28;21983;-68
2021/07/03 06:32:20;;;;;;;16.10;12.02;;;21.40;91.90;;;;;;5065794;28;20029;-68
2021/07/03 06:35:06;;;;;;;13.18;10.43;;;21.50;91.80;;;;;;5070159;28;20511;-69
2021/07/03 06:37:52;;;;;;;15.25;11.95;;;21.50;91.50;;;;;;5074627;28;20445;-68
2021/07/03 06:40:38;;;;;;;17.38;11.05;;;21.50;91.60;;;;;;5060498;28;20025;-69
2021/07/03 06:43:04;;;;;;;15.30;10.55;;;21.60;91.80;;;;;;5062784;28;20044;-70
2021/07/03 06:45:48;;;;;;;15.07;10.43;;;21.60;91.40;;;;;;5075123;28;20043;-68
2021/07/03 06:48:32;;;;;;;12.73;9.65;;;21.60;91.40;;;;;;5090899;28;20034;-69
2021/07/03 06:51:16;;;;;;;12.90;9.35;;;21.60;91.30;;;;;;5077224;28;20035;-69
2021/07/03 06:54:03;;;;;;;13.63;8.73;;;21.60;90.80;;;;;;5071676;28;20042;-69
2021/07/03 06:56:47;;;;;;;14.75;8.93;;;21.70;90.80;;;;;;5069776;28;20499;-69
2021/07/03 06:59:31;;;;;;;12.57;8.40;;;21.70;90.80;;;;;;5075952;28;20113;-68
2021/07/03 07:02:18;;;;;;;9.80;7.95;;;21.80;90.70;;;;;;5073195;28;20032;-69
2021/07/03 07:05:04;;;;;;;12.65;7.88;;;21.80;90.20;;;;;;5075396;28;20692;-68
2021/07/03 07:07:48;;;;;;;12.27;7.82;;;21.80;90.00;;;;;;5079742;28;20533;-68
2021/07/03 07:10:32;;;;;;;15.77;8.02;;;21.90;89.90;;;;;;5068488;28;20035;-68
2021/07/03 07:13:16;;;;;;;11.57;7.90;;;21.90;89.70;;;;;;5074471;28;20035;-68
2021/07/03 07:16:00;;;;;;;11.23;7.65;;;21.90;89.70;;;;;;5081688;28;20289;-68
2021/07/03 07:18:44;;;;;;;11.90;7.78;;;21.90;89.40;;;;;;5072540;28;20062;-68
2021/07/03 07:21:29;;;;;;;11.10;8.07;;;22.00;89.30;;;;;;5071875;28;20038;-68
2021/07/03 07:24:13;;;;;;;14.32;9.65;;;22.00;89.30;;;;;;5078421;28;20736;-68
2021/07/03 07:26:57;;;;;;;11.65;8.55;;;22.10;88.60;;;;;;5070468;28;20077;-68
2021/07/03 07:29:41;;;;;;;12.38;8.85;;;22.10;88.90;;;;;;5064352;28;20046;-65
2021/07/03 07:32:25;;;;;;;10.60;8.35;;;22.10;89.00;;;;;;5066260;28;20514;-68
2021/07/03 07:35:09;;;;;;;13.73;8.37;;;22.20;88.70;;;;;;5065386;28;20526;-67
2021/07/03 07:37:53;;;;;;;13.98;8.20;;;22.30;88.40;;;;;;5071887;28;20344;-67
2021/07/03 07:40:37;;;;;;;10.43;7.72;;;22.40;88.10;;;;;;5067030;28;20035;-67
2021/07/03 07:43:21;;;;;;;8.90;7.80;;;22.40;87.60;;;;;;5086742;28;20154;-68
2021/07/03 07:46:05;;;;;;;12.50;8.68;;;22.50;87.80;;;;;;5063970;28;20039;-67
2021/07/03 07:48:49;;;;;;;11.05;8.57;;;22.50;87.80;;;;;;5082423;28;20055;-67
2021/07/03 07:51:34;;;;;;;11.40;8.73;;;22.60;87.50;;;;;;5070954;28;20044;-68
2021/07/03 07:54:18;;;;;;;15.25;8.70;;;22.70;87.40;;;;;;5072232;28;20035;-67
2021/07/03 07:57:02;;;;;;;11.57;7.72;;;22.70;86.80;;;;;;5071705;28;20046;-67
2021/07/03 07:59:46;;;;;;;13.98;8.45;;;22.80;87.00;;;;;;5075297;28;20078;-68
2021/07/03 08:02:30;;;;;;;12.80;8.93;;;22.90;86.70;;;;;;5079738;28;20112;-67
2021/07/03 08:05:16;;;;;;;10.77;7.75;;;23.00;86.10;;;;;;5073227;28;20143;-67
2021/07/03 08:08:00;;;;;;;14.73;8.95;;;23.00;86.00;;;;;;5073261;28;20081;-67
2021/07/03 08:10:45;;;;;;;10.20;7.80;;;23.00;86.20;;;;;;5084864;28;20441;-68
2021/07/03 08:13:29;;;;;;;11.02;7.30;;;23.00;85.80;;;;;;5081440;28;20027;-67
2021/07/03 08:16:13;;;;;;;11.65;8.00;;;23.10;86.00;;;;;;5067238;28;20120;-66
2021/07/03 08:18:57;;;;;;;11.88;8.10;;;23.20;86.00;;;;;;5071624;28;20104;-66
2021/07/03 08:21:41;;;;;;;9.80;7.70;;;23.30;85.60;;;;;;5072311;28;20453;-66
2021/07/03 08:24:25;;;;;;;10.10;8.02;;;23.40;84.50;;;;;;5073524;28;20043;-68
2021/07/03 08:27:09;;;;;;;11.32;7.90;;;23.50;83.90;;;;;;5092660;28;20043;-68
2021/07/03 08:29:53;;;;;;;9.57;7.77;;;23.50;84.50;;;;;;5082556;28;20097;-67
2021/07/03 08:32:38;;;;;;;9.65;8.20;;;23.60;84.80;;;;;;5072351;28;20262;-67
2021/07/03 08:35:22;;;;;;;12.82;8.43;;;23.70;84.20;;;;;;5081362;28;20035;-67
2021/07/03 08:38:06;;;;;;;11.87;8.43;;;23.80;83.30;;;;;;5090338;28;20031;-67
2021/07/03 08:40:50;;;;;;;11.93;8.10;;;23.90;82.20;;;;;;5069986;28;20273;-67
2021/07/03 08:43:34;;;;;;;10.15;8.48;;;24.00;83.30;;;;;;5053195;28;20084;-67
2021/07/03 08:46:20;;;;;;;11.48;8.60;;;24.00;82.30;;;;;;5090050;28;20543;-68
2021/07/03 08:49:05;;;;;;;14.20;9.52;;;24.10;82.80;;;;;;5088045;28;20229;-68
2021/07/03 08:51:52;;;;;;;11.45;8.50;;;24.10;82.50;;;;;;5070262;28;20392;-68
2021/07/03 08:54:38;;;;;;;11.43;8.77;;;24.10;81.90;;;;;;5073587;28;20475;-68
2021/07/03 08:57:24;;;;;;;11.65;8.05;;;24.20;82.00;;;;;;5089755;28;20070;-68
2021/07/03 09:00:10;;;;;;;10.60;7.45;;;24.20;81.60;;;;;;5078366;28;20040;-68
2021/07/03 09:02:57;;;;;;;12.00;8.30;;;24.30;81.70;;;;;;5068454;28;20025;-68
2021/07/03 09:05:51;;;;;;;11.02;7.90;;;24.40;81.60;;;;;;5069136;28;20407;-68
2021/07/03 09:08:37;;;;;;;10.27;7.22;;;24.50;79.90;;;;;;5071799;28;20024;-68
2021/07/03 09:11:23;;;;;;;11.38;8.45;;;24.40;80.00;;;;;;5070656;28;20039;-68
2021/07/03 09:14:09;;;;;;;10.05;7.80;;;24.40;80.30;;;;;;5069306;28;20028;-68
2021/07/03 09:17:00;;;;;;;12.73;8.60;;;24.40;78.90;;;;;;5071471;28;20147;-68
2021/07/03 09:19:51;;;;;;;12.68;8.30;;;24.50;78.20;;;;;;5067707;28;20035;-68
2021/07/03 09:22:37;;;;;;;9.85;7.22;;;24.60;78.50;;;;;;5068616;28;20086;-68
2021/07/03 09:25:23;;;;;;;11.38;8.27;;;24.70;77.70;;;;;;5068294;28;20377;-68
2021/07/03 09:28:15;;;;;;;9.73;7.53;;;24.70;77.70;;;;;;5068882;28;20024;-68
2021/07/03 09:31:02;;;;;;;10.52;7.32;;;24.80;76.70;;;;;;5084232;28;20069;-68
2021/07/03 09:33:51;;;;;;;13.10;8.18;;;24.80;77.20;;;;;;5089979;28;20866;-68
2021/07/03 09:36:36;;;;;;;10.52;7.68;;;24.80;76.90;;;;;;5050317;28;20112;-68
2021/07/03 09:39:23;;;;;;;12.07;7.50;;;24.70;75.20;;;;;;5059386;28;20104;-68
2021/07/03 09:42:13;;;;;;;8.93;7.10;;;24.80;75.20;;;;;;5069785;28;20400;-68
2021/07/03 09:44:59;;;;;;;9.30;6.82;;;24.80;75.20;;;;;;5075471;28;20035;-68
2021/07/03 09:47:45;;;;;;;9.35;6.50;;;24.80;75.70;;;;;;5089888;28;20063;-68
2021/07/03 09:50:31;;;;;;;8.50;6.63;;;24.80;74.40;;;;;;5074514;28;20029;-68
2021/07/03 09:53:19;;;;;;;7.78;6.22;;;24.80;73.80;;;;;;5070608;28;20440;-68
2021/07/03 09:56:05;;;;;;;9.43;6.90;;;24.80;73.10;;;;;;5084099;28;20040;-68
2021/07/03 09:58:51;;;;;;;6.97;5.82;;;24.90;73.40;;;;;;5089566;28;20415;-68
2021/07/03 10:01:43;;;;;;;8.45;6.60;;;24.90;74.00;;;;;;5069067;28;20492;-68
2021/07/03 10:04:29;;;;;;;8.68;6.55;;;25.00;74.20;;;;;;5067632;28;20511;-67
2021/07/03 10:07:23;;;;;;;8.90;6.40;;;25.20;74.20;;;;;;5069939;28;20064;-67
2021/07/03 10:10:14;;;;;;;6.78;6.00;;;25.30;72.80;;;;;;5067381;28;20020;-68
2021/07/03 10:13:05;;;;;;;6.93;5.38;;;25.50;72.20;;;;;;5093898;28;20365;-68
2021/07/03 10:16:05;;;;;;;7.95;6.00;;;25.50;70.30;;;;;;5089244;28;20025;-67
2021/07/03 10:18:50;;;;;;;9.85;6.13;;;25.60;70.40;;;;;;5093001;28;20024;-68
2021/07/03 10:21:37;;;;;;;9.32;6.05;;;25.50;69.20;;;;;;5053375;28;20029;-67
2021/07/03 10:24:24;;;;;;;6.13;5.25;;;25.60;68.70;;;;;;5056673;28;20135;-67
2021/07/03 10:27:28;;;;;;;6.72;4.75;;;25.60;68.30;;;;;;5072709;28;20024;-68
2021/07/03 10:30:24;;;;;;;7.88;5.35;;;25.70;67.90;;;;;;5072545;28;20025;-68
2021/07/03 10:33:21;;;;;;;8.45;5.45;;;25.80;67.80;;;;;;5072048;28;20043;-68
2021/07/03 10:36:07;;;;;;;6.53;5.28;;;25.80;66.90;;;;;;5072071;28;20056;-68
2021/07/03 10:38:54;;;;;;;7.55;5.68;;;25.80;66.30;;;;;;5091838;28;20028;-68
2021/07/03 10:41:49;;;;;;;6.55;5.15;;;25.90;65.90;;;;;;5070047;28;20032;-67
2021/07/03 10:44:15;;;;;;;9.13;5.38;;;25.90;65.70;;;;;;5057238;28;20443;-68
2021/07/03 10:47:12;;;;;;;8.35;5.43;;;26.00;66.80;;;;;;5074388;28;20067;-68
2021/07/03 10:49:56;;;;;;;10.27;5.65;;;26.10;66.00;;;;;;5079117;28;20097;-68
2021/07/03 10:52:40;;;;;;;8.70;5.90;;;26.10;66.70;;;;;;5094501;28;20101;-68
2021/07/03 10:55:33;;;;;;;6.75;5.40;;;26.10;67.10;;;;;;5090848;28;20123;-68
2021/07/03 10:58:27;;;;;;;7.57;5.20;;;26.10;64.80;;;;;;5094575;28;20069;-67
2021/07/03 11:01:14;;;;;;;7.55;5.97;;;26.10;64.70;;;;;;5073898;28;20389;-67
2021/07/03 11:03:58;;;;;;;8.20;5.68;;;26.20;64.90;;;;;;5072314;28;20075;-68
2021/07/03 11:06:48;;;;;;;7.60;5.30;;;26.20;66.10;;;;;;5054062;28;20066;-68
2021/07/03 11:09:32;;;;;;;9.85;5.70;;;26.20;64.80;;;;;;5058789;28;20066;-67
2021/07/03 11:12:21;;;;;;;9.07;6.05;;;26.10;64.20;;;;;;5073824;28;20063;-68
2021/07/03 11:15:05;;;;;;;8.18;6.18;;;26.00;64.50;;;;;;5081724;28;20129;-68
2021/07/03 11:17:50;;;;;;;7.32;6.47;;;25.90;64.50;;;;;;5094076;28;20058;-67
2021/07/03 11:20:37;;;;;;;10.23;5.82;;;26.00;64.70;;;;;;5077103;28;20412;-67
2021/07/03 11:23:21;;;;;;;8.15;5.57;;;26.00;65.40;;;;;;5073794;28;20110;-67
2021/07/03 11:26:13;;;;;;;5.70;4.75;;;26.10;64.90;;;;;;5089270;28;20441;-68
2021/07/03 11:29:00;;;;;;;7.78;5.30;;;26.20;63.90;;;;;;5091742;28;20055;-68
2021/07/03 11:31:44;;;;;;;7.70;5.30;;;26.20;63.30;;;;;;5066527;28;20109;-68
2021/07/03 11:34:28;;;;;;;8.35;5.00;;;26.20;63.00;;;;;;5081057;28;20028;-68
2021/07/03 11:37:11;;;;;;;6.43;4.75;;;26.20;62.60;;;;;;5073550;28;20039;-68
2021/07/03 11:39:58;;;;;;;6.90;5.30;;;26.10;62.00;;;;;;5079236;28;20089;-67
2021/07/03 11:42:45;;;;;;;6.00;5.40;;;26.10;62.50;;;;;;5093410;28;20563;-68
2021/07/03 11:45:32;;;;;;;5.68;5.00;;;26.00;62.40;;;;;;5078388;28;20031;-68
2021/07/03 11:48:19;;;;;;;8.15;6.10;;;26.00;62.60;;;;;;5073456;28;20090;-67
2021/07/03 11:51:04;;;;;;;6.93;5.90;;;26.00;62.60;;;;;;5073965;28;20144;-67
2021/07/03 11:53:52;;;;;;;7.82;5.47;;;26.00;63.70;;;;;;5093069;28;20070;-67
2021/07/03 11:56:37;;;;;;;7.47;5.50;;;26.00;64.20;;;;;;5067990;28;20039;-67
2021/07/03 11:59:21;;;;;;;8.35;5.47;;;26.10;64.00;;;;;;5071445;28;20063;-67
2021/07/03 12:02:06;;;;;;;6.68;5.28;;;26.10;63.90;;;;;;5074180;28;20047;-68
2021/07/03 12:04:50;;;;;;;7.80;5.55;;;26.20;63.40;;;;;;5065661;28;20101;-69
2021/07/03 12:07:35;;;;;;;;;;;26.30;62.10;;;;;;5053154;28;20112;-68
2021/07/03 12:10:20;;;;;;;8.02;4.47;;;26.40;63.20;;;;;;5074277;28;19961;-68
2021/07/03 12:13:06;;;;;;;6.80;4.60;;;26.50;60.00;;;;;;5076216;28;20553;-68
2021/07/03 12:16:04;;;;;;;5.53;4.75;;;26.60;58.90;;;;;;5073927;28;20039;-68
2021/07/03 12:18:51;;;;;;;5.88;5.15;;;26.60;59.20;;;;;;5072353;28;20036;-68
2021/07/03 12:21:35;;;;;;;6.80;4.90;;;26.60;59.10;;;;;;5068074;28;20047;-68
2021/07/03 12:24:27;;;;;;;7.00;4.93;;;26.60;58.80;;;;;;5073115;28;20196;-67
2021/07/03 12:27:22;;;;;;;7.28;4.97;;;26.60;58.90;;;;;;5078854;28;20043;-67
2021/07/03 12:30:07;;;;;;;;;;;26.60;59.00;;;;;;5067597;28;20090;-67
2021/07/03 12:33:09;;;;;;;7.20;4.97;;;26.50;59.00;;;;;;5072318;28;19912;-67
2021/07/03 12:35:54;;;;;;;8.75;4.93;;;26.30;60.30;;;;;;5071460;28;20039;-68
2021/07/03 12:38:38;;;;;;;9.23;4.90;;;26.30;59.40;;;;;;5072257;28;20031;-74
2021/07/03 12:41:25;;;;;;;5.82;4.68;;;26.30;59.20;;;;;;5092039;28;20085;-74
2021/07/03 12:44:09;;;;;;;6.75;4.85;;;26.30;59.00;;;;;;5049979;28;20167;-73
2021/07/03 12:46:58;;;;;;;5.90;4.55;;;26.30;58.30;;;;;;5072484;28;20142;-73
2021/07/03 12:49:44;;;;;;;6.10;5.07;;;26.30;58.60;;;;;;5076188;28;20031;-74
2021/07/03 12:52:41;;;;;;;6.00;5.10;;;26.30;58.70;;;;;;5091084;28;20092;-73
2021/07/03 12:55:35;;;;;;;6.82;5.53;;;26.30;58.40;;;;;;5070824;28;20616;-73
2021/07/03 12:58:25;;;;;;;10.27;5.20;;;26.40;57.60;;;;;;5074008;28;20036;-73
2021/07/03 13:01:09;;;;;;;6.78;4.93;;;26.40;57.40;;;;;;5071335;28;20048;-74
2021/07/03 13:03:53;;;;;;;8.35;5.15;;;26.40;58.80;;;;;;5071100;28;20098;-73
2021/07/03 13:06:37;;;;;;;6.68;4.70;;;26.60;59.10;;;;;;5052224;28;20094;-73
2021/07/03 13:09:21;;;;;;;;;;;26.60;58.60;;;;;;5069494;28;20082;-74
2021/07/03 13:12:06;;;;;;;6.70;4.40;;;26.80;59.70;;;;;;5071093;28;19973;-73
2021/07/03 13:14:51;;;;;;;;;;;26.90;58.00;;;;;;5076684;28;20035;-73
2021/07/03 13:17:35;;;;;;;6.72;4.50;;;27.00;57.00;;;;;;5075345;28;19916;-73
2021/07/03 13:20:19;;;;;;;9.68;5.72;;;26.90;56.80;;;;;;5070928;28;20511;-74
2021/07/03 13:23:03;;;;;;;7.07;5.28;;;26.90;54.60;;;;;;5070979;28;20052;-73
2021/07/03 13:25:47;;;;;;;6.65;5.85;;;26.70;54.70;;;;;;5071951;28;20039;-75
2021/07/03 13:28:32;;;;;;;6.25;5.25;;;26.60;54.50;;;;;;5063252;28;20027;-73
2021/07/03 13:31:16;;;;;;;9.07;5.28;;;26.50;54.60;;;;;;5052990;28;20477;-73
2021/07/03 13:34:00;;;;;;;6.90;4.47;;;26.60;55.20;;;;;;5070051;28;20032;-71
2021/07/03 13:36:47;;;;;;;7.28;5.03;;;26.70;55.90;;;;;;5067709;28;20047;-72
2021/07/03 13:39:31;;;;;;;6.55;5.22;;;26.70;54.50;;;;;;5071636;28;20027;-72
2021/07/03 13:42:15;;;;;;;;;;;26.60;54.50;;;;;;5071195;28;20040;-71
2021/07/03 13:44:59;;;;;;;5.82;4.93;;;26.70;55.30;;;;;;5072328;28;19919;-71
2021/07/03 13:47:43;;;;;;;6.18;4.85;;;26.80;54.80;;;;;;5082334;28;20039;-71
2021/07/03 13:50:27;;;;;;;6.20;4.18;;;26.90;55.70;;;;;;5074509;28;20082;-71
2021/07/03 13:53:11;;;;;;;7.10;5.13;;;27.10;55.40;;;;;;5071873;28;20441;-71
2021/07/03 13:55:55;;;;;;;6.38;4.57;;;27.10;53.90;;;;;;5080202;28;20042;-71
2021/07/03 13:58:39;;;;;;;5.20;4.38;;;27.10;53.30;;;;;;5074324;28;20089;-72
2021/07/03 14:01:23;;;;;;;6.35;4.90;;;27.20;53.70;;;;;;5091012;28;20089;-73
2021/07/03 14:04:07;;;;;;;5.15;4.40;;;27.30;53.80;;;;;;5072966;28;21613;-72
2021/07/03 14:06:51;;;;;;;8.50;4.50;;;27.50;53.70;;;;;;5041397;28;20072;-71
2021/07/03 14:09:36;;;;;;;8.57;4.10;;;27.40;53.20;;;;;;5030069;28;20040;-71
2021/07/03 14:12:20;;;;;;;;;;;27.40;52.20;;;;;;5034368;28;20482;-71